Time;durP1;ratioP1;P1;durP2;ratioP2;P2;SDS_P1;SDS_P2;PMS_P1;PMS_P2;Temp;Humidity;BMP_temperature;BMP_pressure;BME280_temperature;BME280_humidity;BME280_pressure;Samples;Min_cycle;Max_cycle;Signal;HPM_P1;HPM_P2
2021/11/20 00:01:52;;;;;;;25.45;10.82;;;3.10;99.90;;;;;;4972542;28;20046;-73
2021/11/20 00:04:26;;;;;;;29.58;11.20;;;3.10;99.90;;;;;;4953840;28;20077;-73
2021/11/20 00:07:00;;;;;;;26.65;10.55;;;3.10;99.90;;;;;;4972753;28;20035;-73
2021/11/20 00:09:28;;;;;;;23.67;10.00;;;3.10;99.90;;;;;;4985778;28;20138;-73
2021/11/20 00:12:03;;;;;;;28.17;11.07;;;3.20;99.90;;;;;;4972370;28;20055;-73
2021/11/20 00:14:31;;;;;;;23.98;11.82;;;3.20;99.90;;;;;;4972304;28;20043;-74
2021/11/20 00:17:01;;;;;;;25.85;11.05;;;3.20;99.90;;;;;;4985583;28;20117;-74
2021/11/20 00:19:35;;;;;;;21.80;10.13;;;3.20;99.90;;;;;;4973561;28;20054;-73
2021/11/20 00:22:18;;;;;;;25.73;10.48;;;3.20;99.90;;;;;;4971257;28;20075;-73
2021/11/20 00:24:54;;;;;;;28.95;11.57;;;3.20;99.90;;;;;;4971599;28;20149;-73
2021/11/20 00:27:34;;;;;;;23.83;10.95;;;3.20;99.90;;;;;;4990349;28;20043;-73
2021/11/20 00:32:46;;;;;;;21.98;10.43;;;3.20;99.90;;;;;;4972856;28;20047;-74
2021/11/20 00:35:22;;;;;;;25.10;10.57;;;3.20;99.90;;;;;;4956790;28;20034;-73
2021/11/20 00:37:54;;;;;;;25.65;11.10;;;3.20;99.90;;;;;;4954896;28;20134;-73
2021/11/20 00:40:37;;;;;;;21.88;9.95;;;3.20;99.90;;;;;;4971949;28;20045;-73
2021/11/20 00:43:04;;;;;;;24.77;11.80;;;3.20;99.90;;;;;;4971985;28;20078;-73
2021/11/20 00:45:32;;;;;;;21.30;10.60;;;3.20;99.90;;;;;;4968713;28;20717;-73
2021/11/20 00:48:06;;;;;;;23.10;11.13;;;3.20;99.90;;;;;;4972188;28;20085;-73
2021/11/20 00:50:36;;;;;;;23.13;10.70;;;3.20;99.90;;;;;;4968131;28;20047;-74
2021/11/20 00:53:09;;;;;;;21.90;9.65;;;3.10;99.90;;;;;;4967607;28;20564;-74
2021/11/20 00:55:41;;;;;;;19.08;9.73;;;3.10;99.90;;;;;;4988062;28;20085;-74
2021/11/20 00:58:09;;;;;;;23.55;9.93;;;3.10;99.90;;;;;;4968355;28;20050;-72
2021/11/20 01:00:46;;;;;;;20.27;9.93;;;3.10;99.90;;;;;;4969254;28;20042;-73
2021/11/20 01:03:20;;;;;;;21.45;10.55;;;3.10;99.90;;;;;;4985683;28;20042;-72
2021/11/20 01:05:47;;;;;;;22.55;10.45;;;3.10;99.90;;;;;;4986806;28;20105;-74
2021/11/20 01:08:24;;;;;;;25.40;10.70;;;3.10;99.90;;;;;;4972220;28;20510;-73
2021/11/20 01:11:10;;;;;;;22.73;10.25;;;3.10;99.90;;;;;;4988377;28;20494;-73
2021/11/20 01:13:42;;;;;;;21.20;9.55;;;3.10;99.90;;;;;;4987992;28;20043;-73
2021/11/20 01:16:16;;;;;;;23.00;10.25;;;3.10;99.90;;;;;;4956909;28;20049;-73
2021/11/20 01:18:48;;;;;;;23.10;10.68;;;3.10;99.90;;;;;;4956843;28;20047;-73
2021/11/20 01:21:51;;;;;;;23.42;9.68;;;3.10;99.90;;;;;;4970903;28;20094;-73
2021/11/20 01:24:19;;;;;;;21.77;10.43;;;3.10;99.90;;;;;;4987961;28;20047;-73
2021/11/20 01:26:54;;;;;;;22.85;11.40;;;3.10;99.90;;;;;;4956957;28;20141;-74
2021/11/20 01:29:22;;;;;;;22.83;11.10;;;3.10;99.90;;;;;;4971935;28;20398;-73
2021/11/20 01:31:57;;;;;;;26.45;10.77;;;3.10;99.90;;;;;;4971854;28;20513;-73
2021/11/20 01:34:25;;;;;;;23.40;11.07;;;3.10;99.90;;;;;;4987823;28;20038;-72
2021/11/20 01:36:58;;;;;;;22.48;10.27;;;3.10;99.90;;;;;;4971945;28;20142;-72
2021/11/20 01:39:37;;;;;;;20.80;10.05;;;3.10;99.90;;;;;;4971718;28;20109;-73
2021/11/20 01:42:21;;;;;;;20.98;10.15;;;3.10;99.90;;;;;;4971706;28;20057;-73
2021/11/20 01:45:26;;;;;;;19.40;9.70;;;3.20;99.90;;;;;;4971585;28;20057;-73
2021/11/20 01:48:26;;;;;;;21.90;10.07;;;3.20;99.90;;;;;;4971654;28;20466;-73
2021/11/20 01:51:21;;;;;;;22.98;10.50;;;3.10;99.90;;;;;;4987893;28;20070;-73
2021/11/20 01:54:01;;;;;;;;;;;3.10;99.90;;;;;;4987790;28;20101;-73
2021/11/20 01:56:53;;;;;;;25.75;10.82;;;3.10;99.90;;;;;;4956764;28;19922;-73
2021/11/20 01:59:40;;;;;;;20.65;10.75;;;3.10;99.90;;;;;;4971312;28;20121;-73
2021/11/20 02:02:28;;;;;;;26.17;11.50;;;3.10;99.90;;;;;;4984344;28;20069;-73
2021/11/20 02:05:59;;;;;;;26.83;10.77;;;3.10;99.90;;;;;;4971532;28;20129;-73
2021/11/20 02:08:59;;;;;;;;;;;3.10;99.90;;;;;;4847021;29;20049;-73
2021/11/20 02:11:52;;;;;;;23.23;9.88;;;3.00;99.90;;;;;;4972240;28;19973;-73
2021/11/20 02:14:26;;;;;;;22.85;10.77;;;3.10;99.90;;;;;;4987377;28;20101;-73
2021/11/20 02:17:05;;;;;;;21.42;10.13;;;3.10;99.90;;;;;;4987565;28;20532;-73
2021/11/20 02:19:42;;;;;;;20.48;9.30;;;3.10;99.90;;;;;;4986489;28;20121;-73
2021/11/20 02:22:14;;;;;;;23.83;12.38;;;3.10;99.90;;;;;;4970702;28;20548;-73
2021/11/20 02:24:45;;;;;;;29.02;11.38;;;3.10;99.90;;;;;;4985767;28;20078;-74
2021/11/20 02:27:40;;;;;;;26.60;11.02;;;3.10;99.90;;;;;;4972296;28;20177;-74
2021/11/20 02:30:10;;;;;;;22.08;10.52;;;3.10;99.90;;;;;;4986806;28;20054;-72
2021/11/20 02:32:40;;;;;;;25.23;11.00;;;3.10;99.90;;;;;;4986753;28;20051;-73
2021/11/20 02:35:28;;;;;;;24.17;11.15;;;3.10;99.90;;;;;;4956586;28;20134;-72
2021/11/20 02:38:01;;;;;;;24.70;10.50;;;3.00;99.90;;;;;;4971048;28;20046;-72
2021/11/20 02:40:33;;;;;;;23.97;10.90;;;3.10;99.90;;;;;;4971212;28;20077;-72
2021/11/20 02:43:05;;;;;;;22.55;9.98;;;3.10;99.90;;;;;;4971154;28;20051;-72
2021/11/20 02:45:49;;;;;;;27.27;11.38;;;3.10;99.90;;;;;;4970661;28;20493;-74
2021/11/20 02:48:16;;;;;;;26.58;11.35;;;3.10;99.90;;;;;;4987378;28;20422;-73
2021/11/20 02:51:09;;;;;;;25.30;10.98;;;3.00;99.90;;;;;;4986724;28;20070;-73
2021/11/20 02:53:47;;;;;;;24.02;10.82;;;3.10;99.90;;;;;;4970414;28;20134;-73
2021/11/20 02:56:22;;;;;;;23.60;10.75;;;3.10;99.90;;;;;;4987349;28;20090;-73
2021/11/20 02:58:50;;;;;;;23.75;10.73;;;3.10;99.90;;;;;;4971169;28;20042;-73
2021/11/20 03:01:27;;;;;;;23.00;10.13;;;3.10;99.90;;;;;;4970832;28;20138;-73
2021/11/20 03:03:55;;;;;;;26.17;10.52;;;3.10;99.90;;;;;;4970783;28;20053;-73
2021/11/20 03:06:28;;;;;;;23.30;10.88;;;3.10;99.90;;;;;;4970981;28;20043;-73
2021/11/20 03:09:00;;;;;;;25.20;11.67;;;3.20;99.90;;;;;;4970942;28;20078;-72
2021/11/20 03:11:27;;;;;;;23.92;11.48;;;3.20;99.90;;;;;;4970770;28;20079;-73
2021/11/20 03:14:07;;;;;;;25.35;11.80;;;3.30;99.90;;;;;;4988031;28;20046;-73
2021/11/20 03:16:57;;;;;;;24.00;11.15;;;3.20;99.90;;;;;;4990530;28;20109;-72
2021/11/20 03:19:27;;;;;;;26.23;11.82;;;3.30;99.90;;;;;;4974812;28;20421;-72
2021/11/20 03:22:03;;;;;;;23.73;10.85;;;3.20;99.90;;;;;;4974173;28;20041;-73
2021/11/20 03:24:30;;;;;;;24.48;11.27;;;3.20;99.90;;;;;;4990098;28;20117;-73
2021/11/20 03:27:02;;;;;;;20.80;10.30;;;3.20;99.90;;;;;;4976150;28;20097;-73
2021/11/20 03:29:35;;;;;;;21.10;10.52;;;3.20;99.90;;;;;;4977078;28;20054;-73
2021/11/20 03:32:05;;;;;;;23.92;10.82;;;3.20;99.90;;;;;;4958598;28;20078;-73
2021/11/20 03:34:34;;;;;;;22.65;9.80;;;3.20;99.90;;;;;;4989881;28;20094;-73
2021/11/20 03:37:02;;;;;;;20.45;10.23;;;3.20;99.90;;;;;;4974097;28;20130;-73
2021/11/20 03:39:35;;;;;;;19.33;9.73;;;3.20;99.90;;;;;;4974637;28;20405;-73
2021/11/20 03:42:04;;;;;;;20.60;10.23;;;3.20;99.90;;;;;;4974970;28;20037;-73
2021/11/20 03:44:34;;;;;;;19.75;10.15;;;3.30;99.90;;;;;;4974044;28;20579;-73
2021/11/20 03:47:03;;;;;;;19.88;9.20;;;3.30;99.90;;;;;;4973765;28;20078;-72
2021/11/20 03:49:40;;;;;;;19.45;10.13;;;3.40;99.90;;;;;;4975042;28;20157;-73
2021/11/20 03:52:07;;;;;;;16.63;8.40;;;3.40;99.90;;;;;;4973580;28;20050;-72
2021/11/20 03:54:42;;;;;;;19.95;8.65;;;3.40;99.90;;;;;;4988625;28;20123;-72
2021/11/20 03:57:17;;;;;;;16.58;8.27;;;3.40;99.90;;;;;;4973746;28;20137;-73
2021/11/20 03:59:50;;;;;;;17.10;8.70;;;3.40;99.90;;;;;;4973550;28;20049;-73
2021/11/20 04:02:20;;;;;;;16.65;9.30;;;3.40;99.90;;;;;;4989329;28;20525;-73
2021/11/20 04:04:51;;;;;;;15.23;8.00;;;3.40;99.90;;;;;;4973274;28;20561;-72
2021/11/20 04:07:23;;;;;;;18.17;8.27;;;3.40;99.90;;;;;;4973355;28;20102;-72
2021/11/20 04:09:51;;;;;;;16.08;8.00;;;3.40;99.90;;;;;;4989521;28;20074;-73
2021/11/20 04:12:23;;;;;;;17.52;7.97;;;3.50;99.90;;;;;;4973150;28;20425;-73
2021/11/20 04:14:56;;;;;;;15.23;8.32;;;3.50;99.90;;;;;;4973152;28;20043;-73
2021/11/20 04:17:28;;;;;;;14.82;8.07;;;3.50;99.90;;;;;;4973382;28;20047;-73
2021/11/20 04:20:00;;;;;;;16.00;8.60;;;3.50;99.90;;;;;;4957877;28;20501;-73
2021/11/20 04:22:32;;;;;;;16.80;8.93;;;3.50;99.90;;;;;;4988465;28;20075;-73
2021/11/20 04:24:59;;;;;;;17.42;8.95;;;3.50;99.90;;;;;;4987100;28;20043;-73
2021/11/20 04:27:50;;;;;;;15.73;8.32;;;3.50;99.90;;;;;;4985823;28;20058;-73
2021/11/20 04:30:42;;;;;;;18.23;9.18;;;3.50;99.90;;;;;;4974391;28;20054;-73
2021/11/20 04:33:14;;;;;;;;;;;3.50;99.90;;;;;;4973044;28;20155;-73
2021/11/20 04:35:46;;;;;;;18.35;8.98;;;3.50;99.90;;;;;;4972815;28;19933;-74
2021/11/20 04:38:20;;;;;;;21.17;9.52;;;3.50;99.90;;;;;;4972841;28;20042;-73
2021/11/20 04:40:52;;;;;;;21.13;10.32;;;3.60;99.90;;;;;;4988973;28;20453;-73
2021/11/20 04:43:25;;;;;;;18.27;9.93;;;3.60;99.90;;;;;;4972534;28;20077;-73
2021/11/20 04:45:53;;;;;;;20.60;9.93;;;3.60;99.90;;;;;;4972544;28;20137;-73
2021/11/20 04:48:24;;;;;;;22.13;10.80;;;3.60;99.90;;;;;;4957427;28;20134;-73
2021/11/20 04:51:01;;;;;;;17.88;9.65;;;3.60;99.90;;;;;;4957514;28;20101;-73
2021/11/20 04:53:34;;;;;;;;;;;3.60;99.90;;;;;;4972769;28;20125;-72
2021/11/20 04:56:05;;;;;;;19.58;9.52;;;3.60;99.90;;;;;;4956695;28;19922;-73
2021/11/20 04:58:38;;;;;;;22.65;10.18;;;3.60;99.90;;;;;;4988790;28;20051;-72
2021/11/20 05:01:10;;;;;;;22.52;11.75;;;3.50;99.90;;;;;;4988629;28;20049;-73
2021/11/20 05:03:43;;;;;;;;;;;3.60;99.90;;;;;;4972577;28;20465;-72
2021/11/20 05:06:17;;;;;;;17.58;9.63;;;3.50;99.90;;;;;;4973588;28;20449;-72
2021/11/20 05:08:44;;;;;;;20.40;9.73;;;3.50;99.90;;;;;;4973604;28;20070;-72
2021/11/20 05:11:12;;;;;;;20.25;10.55;;;3.60;99.90;;;;;;4972155;28;20047;-73
2021/11/20 05:13:50;;;;;;;21.30;10.63;;;3.60;99.90;;;;;;4973390;28;20047;-73
2021/11/20 05:16:22;;;;;;;21.48;10.02;;;3.60;99.90;;;;;;4972176;28;20046;-73
2021/11/20 05:18:49;;;;;;;31.02;15.00;;;3.60;99.90;;;;;;4988168;28;20049;-73
2021/11/20 05:21:30;;;;;;;24.92;12.82;;;3.60;99.90;;;;;;4971946;28;20536;-73
2021/11/20 05:24:03;;;;;;;25.20;13.65;;;3.60;99.90;;;;;;4956656;28;20109;-73
2021/11/20 05:26:30;;;;;;;24.02;13.13;;;3.60;99.90;;;;;;4972081;28;20577;-73
2021/11/20 05:29:05;;;;;;;24.20;12.60;;;3.60;99.90;;;;;;4987516;28;20513;-74
2021/11/20 05:31:44;;;;;;;;;;;3.60;99.90;;;;;;4972149;28;20043;-74
2021/11/20 05:34:11;;;;;;;19.88;10.63;;;3.50;99.90;;;;;;4987749;28;19928;-73
2021/11/20 05:36:43;;;;;;;22.05;12.48;;;3.50;99.90;;;;;;4956768;28;20527;-73
2021/11/20 05:39:19;;;;;;;23.63;12.95;;;3.50;99.90;;;;;;4951985;29;20058;-72
2021/11/20 05:41:52;;;;;;;22.75;12.75;;;3.60;99.90;;;;;;4970734;28;20137;-73
2021/11/20 05:44:21;;;;;;;23.60;12.73;;;3.60;99.90;;;;;;4965066;28;20134;-74
2021/11/20 05:46:59;;;;;;;25.48;13.35;;;3.60;99.90;;;;;;4977885;28;20043;-73
2021/11/20 05:49:39;;;;;;;27.42;12.73;;;3.50;99.90;;;;;;4951847;28;20087;-74
2021/11/20 05:52:16;;;;;;;25.83;13.50;;;3.60;99.90;;;;;;4970973;28;20434;-72
2021/11/20 05:54:48;;;;;;;;;;;3.60;99.90;;;;;;4971162;28;20043;-73
2021/11/20 05:57:26;;;;;;;25.63;13.05;;;3.60;99.90;;;;;;4968010;28;19950;-74
2021/11/20 06:00:22;;;;;;;22.65;13.32;;;3.70;99.90;;;;;;4977437;28;20047;-74
2021/11/20 06:02:58;;;;;;;29.83;13.45;;;3.60;99.90;;;;;;4959908;28;20569;-73
2021/11/20 06:05:45;;;;;;;22.15;13.43;;;3.70;99.90;;;;;;4972148;28;20043;-72
2021/11/20 06:08:19;;;;;;;25.95;12.57;;;3.60;99.90;;;;;;4980296;28;20521;-73
2021/11/20 06:10:56;;;;;;;27.00;13.45;;;3.60;99.90;;;;;;4996527;28;20047;-73
2021/11/20 06:13:24;;;;;;;24.70;13.70;;;3.60;99.90;;;;;;4967483;28;20149;-73
2021/11/20 06:16:03;;;;;;;23.83;13.43;;;3.60;99.90;;;;;;4986623;28;20076;-74
2021/11/20 06:18:35;;;;;;;25.25;13.27;;;3.60;99.90;;;;;;4985994;28;20446;-73
2021/11/20 06:21:08;;;;;;;27.00;13.05;;;3.60;99.90;;;;;;4954928;28;20082;-73
2021/11/20 06:23:40;;;;;;;24.15;13.85;;;3.60;99.90;;;;;;4978007;28;20046;-73
2021/11/20 06:26:11;;;;;;;25.58;13.40;;;3.60;99.90;;;;;;4983112;28;20146;-73
2021/11/20 06:28:39;;;;;;;22.55;13.48;;;3.60;99.90;;;;;;4970776;28;20518;-73
2021/11/20 06:31:19;;;;;;;20.50;12.10;;;3.60;99.90;;;;;;4988224;28;20074;-73
2021/11/20 06:34:08;;;;;;;25.17;13.98;;;3.60;99.90;;;;;;4970083;28;20097;-73
2021/11/20 06:36:58;;;;;;;25.25;15.13;;;3.60;99.90;;;;;;4971906;28;20584;-73
2021/11/20 06:39:48;;;;;;;23.85;13.50;;;3.60;99.90;;;;;;4971300;28;20047;-73
2021/11/20 06:42:15;;;;;;;25.98;15.02;;;3.60;99.90;;;;;;4970510;28;20035;-73
2021/11/20 06:44:42;;;;;;;23.30;13.25;;;3.70;99.90;;;;;;4986265;28;20708;-72
2021/11/20 06:47:10;;;;;;;34.30;19.65;;;3.70;99.90;;;;;;4979263;28;20051;-73
2021/11/20 06:49:43;;;;;;;36.20;22.42;;;3.60;99.90;;;;;;4985631;28;20043;-73
2021/11/20 06:52:10;;;;;;;34.05;18.83;;;3.60;99.90;;;;;;4972866;28;20120;-73
2021/11/20 06:54:56;;;;;;;23.55;14.13;;;3.60;99.90;;;;;;4985105;28;20065;-73
2021/11/20 07:00:32;;;;;;;27.52;14.63;;;3.70;99.90;;;;;;4975230;28;20046;-73
2021/11/20 07:03:12;;;;;;;28.77;15.20;;;3.70;99.90;;;;;;4974570;28;20042;-74
2021/11/20 07:06:02;;;;;;;;;;;3.70;99.90;;;;;;4986855;28;20055;-73
2021/11/20 07:08:37;;;;;;;26.95;14.90;;;3.70;99.90;;;;;;4971629;28;20376;-73
2021/11/20 07:11:04;;;;;;;23.35;14.93;;;3.70;99.90;;;;;;4989340;28;20066;-73
2021/11/20 07:13:31;;;;;;;27.00;13.95;;;3.60;99.90;;;;;;4969969;28;20055;-73
2021/11/20 07:15:58;;;;;;;30.98;18.40;;;3.70;99.90;;;;;;4972775;28;20520;-73
2021/11/20 07:18:32;;;;;;;31.90;19.40;;;3.70;99.90;;;;;;4973143;28;20055;-73
2021/11/20 07:21:25;;;;;;;28.33;17.48;;;3.70;99.90;;;;;;4960917;28;20050;-72
2021/11/20 07:24:13;;;;;;;26.60;14.27;;;3.70;99.90;;;;;;4973338;28;20173;-73
2021/11/20 07:26:45;;;;;;;26.35;13.40;;;3.70;99.90;;;;;;4973924;28;20122;-72
2021/11/20 07:29:13;;;;;;;24.70;13.30;;;3.70;99.90;;;;;;4986856;28;20429;-72
2021/11/20 07:32:02;;;;;;;23.08;13.30;;;3.70;99.90;;;;;;4969564;28;20039;-74
2021/11/20 07:34:35;;;;;;;26.42;14.48;;;3.80;99.90;;;;;;4976551;28;20046;-73
2021/11/20 07:37:07;;;;;;;19.90;11.65;;;3.80;99.90;;;;;;4969862;28;20041;-73
2021/11/20 07:39:35;;;;;;;25.45;15.57;;;3.80;99.90;;;;;;4972051;28;20054;-74
2021/11/20 07:42:07;;;;;;;26.90;15.25;;;3.80;99.90;;;;;;4989144;28;20074;-73
2021/11/20 07:45:02;;;;;;;28.75;16.88;;;3.90;99.90;;;;;;4985111;28;20175;-72
2021/11/20 07:47:43;;;;;;;22.05;12.95;;;3.90;99.90;;;;;;4965913;28;20066;-74
2021/11/20 07:50:17;;;;;;;21.88;12.38;;;3.90;99.90;;;;;;4960648;28;20498;-73
2021/11/20 07:52:49;;;;;;;25.08;14.18;;;3.90;99.90;;;;;;4988795;28;20034;-73
2021/11/20 07:55:16;;;;;;;23.02;13.85;;;3.90;99.90;;;;;;4979579;28;20045;-73
2021/11/20 07:57:55;;;;;;;25.75;14.23;;;3.90;99.90;;;;;;4976257;28;20383;-73
2021/11/20 08:00:28;;;;;;;24.92;14.88;;;4.00;99.90;;;;;;4969508;28;20074;-74
2021/11/20 08:03:06;;;;;;;27.45;15.13;;;3.90;99.90;;;;;;4964455;28;20056;-73
2021/11/20 08:05:47;;;;;;;29.73;15.40;;;4.00;99.90;;;;;;4962763;28;20117;-74
2021/11/20 08:08:33;;;;;;;26.50;15.00;;;4.00;99.90;;;;;;4964546;28;20524;-73
2021/11/20 08:11:11;;;;;;;25.95;15.05;;;4.10;99.90;;;;;;4967802;28;20047;-73
2021/11/20 08:13:38;;;;;;;24.33;15.20;;;4.00;99.90;;;;;;4987673;28;20057;-74
2021/11/20 08:16:23;;;;;;;30.60;16.17;;;4.00;99.90;;;;;;4970597;28;20043;-73
2021/11/20 08:19:07;;;;;;;25.67;15.07;;;4.10;99.90;;;;;;4988929;28;20039;-74
2021/11/20 08:21:51;;;;;;;32.28;19.42;;;4.10;99.90;;;;;;4971387;28;20049;-73
2021/11/20 08:24:28;;;;;;;30.33;18.67;;;4.10;99.90;;;;;;4951350;29;20047;-73
2021/11/20 08:27:00;;;;;;;29.58;15.15;;;4.10;99.90;;;;;;4960825;28;20051;-73
2021/11/20 08:29:32;;;;;;;27.08;14.30;;;4.20;99.90;;;;;;4972252;28;20473;-73
2021/11/20 08:32:06;;;;;;;31.40;14.77;;;4.20;99.90;;;;;;4972428;28;20141;-74
2021/11/20 08:34:58;;;;;;;26.42;15.00;;;4.20;99.90;;;;;;4988609;28;20134;-73
2021/11/20 08:37:49;;;;;;;26.63;15.38;;;4.20;99.90;;;;;;4986445;28;20062;-73
2021/11/20 08:40:35;;;;;;;29.55;16.23;;;4.30;99.90;;;;;;4973916;28;20042;-72
2021/11/20 08:43:03;;;;;;;26.77;15.02;;;4.30;99.90;;;;;;4971972;28;20043;-72
2021/11/20 08:45:37;;;;;;;29.50;16.75;;;4.30;99.90;;;;;;4971755;28;20138;-73
2021/11/20 08:48:15;;;;;;;28.13;16.13;;;4.40;99.90;;;;;;4966955;28;20514;-72
2021/11/20 08:50:50;;;;;;;30.08;17.55;;;4.40;99.90;;;;;;4954579;28;20047;-73
2021/11/20 08:53:23;;;;;;;29.83;17.77;;;4.50;99.90;;;;;;4955166;28;20424;-74
2021/11/20 08:55:56;;;;;;;31.33;18.10;;;4.40;99.90;;;;;;4955331;28;20127;-73
2021/11/20 08:58:35;;;;;;;25.38;15.18;;;4.50;99.90;;;;;;4987757;28;20050;-73
2021/11/20 09:01:18;;;;;;;22.20;13.82;;;4.50;99.90;;;;;;4987932;28;20046;-73
2021/11/20 09:04:04;;;;;;;69.82;35.58;;;4.50;99.90;;;;;;4971677;28;20039;-73
2021/11/20 09:06:56;;;;;;;84.47;43.28;;;4.80;99.90;;;;;;4971136;28;20070;-73
2021/11/20 09:09:42;;;;;;;60.13;36.33;;;4.90;99.90;;;;;;4952394;29;20059;-72
2021/11/20 09:12:52;;;;;;;55.78;29.00;;;5.10;99.90;;;;;;4951410;28;20043;-73
2021/11/20 09:15:30;;;;;;;44.40;24.88;;;5.20;99.90;;;;;;4930303;29;20138;-72
2021/11/20 09:18:01;;;;;;;41.03;24.73;;;5.20;99.90;;;;;;4980125;28;20130;-73
2021/11/20 09:20:34;;;;;;;39.22;22.95;;;5.30;99.90;;;;;;4971372;28;20058;-73
2021/11/20 09:23:08;;;;;;;42.10;25.02;;;5.40;99.90;;;;;;4985559;28;20129;-73
2021/11/20 09:25:59;;;;;;;43.15;23.67;;;5.50;99.90;;;;;;4989637;28;20053;-73
2021/11/20 09:28:27;;;;;;;37.95;21.80;;;5.40;99.90;;;;;;4989903;28;20438;-73
2021/11/20 09:30:58;;;;;;;43.83;24.10;;;5.40;99.90;;;;;;4986015;28;20130;-73
2021/11/20 09:33:31;;;;;;;48.85;29.33;;;5.40;99.90;;;;;;4968048;28;20125;-73
2021/11/20 09:35:58;;;;;;;45.05;23.42;;;5.50;99.90;;;;;;4978173;28;20532;-72
2021/11/20 09:38:47;;;;;;;46.80;28.00;;;5.50;99.90;;;;;;4965934;28;20552;-73
2021/11/20 09:41:23;;;;;;;52.00;26.60;;;5.40;99.90;;;;;;4952484;28;20055;-73
2021/11/20 09:43:58;;;;;;;35.85;20.08;;;5.40;99.90;;;;;;4967246;28;20406;-73
2021/11/20 09:46:45;;;;;;;33.42;19.30;;;5.40;99.90;;;;;;4964037;28;20062;-76
2021/11/20 09:49:31;;;;;;;35.83;20.83;;;5.50;99.90;;;;;;4970260;28;20129;-74
2021/11/20 09:52:06;;;;;;;25.70;15.60;;;5.60;99.90;;;;;;4984035;28;20050;-74
2021/11/20 09:54:40;;;;;;;23.98;13.77;;;5.70;99.90;;;;;;4986552;28;20504;-73
2021/11/20 09:57:11;;;;;;;22.63;13.13;;;5.90;99.90;;;;;;4983482;28;20391;-73
2021/11/20 09:59:40;;;;;;;21.20;13.05;;;5.90;99.90;;;;;;4963748;28;20485;-73
2021/11/20 10:02:18;;;;;;;;;;;6.00;99.90;;;;;;4954284;28;20122;-72
2021/11/20 10:05:15;;;;;;;25.25;11.00;;;6.00;99.90;;;;;;4985733;28;19929;-73
2021/11/20 10:08:07;;;;;;;19.35;12.00;;;6.20;99.90;;;;;;4971084;28;20133;-73
2021/11/20 10:10:46;;;;;;;21.73;12.43;;;6.60;99.90;;;;;;4966932;28;20126;-73
2021/11/20 10:13:22;;;;;;;19.45;12.48;;;7.00;99.90;;;;;;4958124;28;20061;-73
2021/11/20 10:16:15;;;;;;;21.08;12.98;;;7.30;99.90;;;;;;4962201;28;20051;-72
2021/11/20 10:18:51;;;;;;;15.90;10.77;;;7.20;99.90;;;;;;4964937;28;20039;-73
2021/11/20 10:21:36;;;;;;;18.08;11.23;;;7.00;99.90;;;;;;5000689;28;20122;-73
2021/11/20 10:24:14;;;;;;;18.73;11.30;;;6.80;99.90;;;;;;4974991;28;20137;-74
2021/11/20 10:26:41;;;;;;;;;;;6.60;99.90;;;;;;4956207;28;20419;-73
2021/11/20 10:29:20;;;;;;;18.38;10.82;;;6.50;99.90;;;;;;4986650;28;20013;-73
2021/11/20 10:32:08;;;;;;;15.80;11.20;;;6.40;99.90;;;;;;4973855;28;20474;-73
2021/11/20 10:34:47;;;;;;;21.65;13.27;;;6.30;99.90;;;;;;5000181;28;20105;-73
2021/11/20 10:37:27;;;;;;;20.85;13.60;;;6.30;99.90;;;;;;4981462;28;20114;-73
2021/11/20 10:40:06;;;;;;;20.83;12.63;;;6.50;99.90;;;;;;4974672;28;20043;-73
2021/11/20 10:42:38;;;;;;;23.58;12.23;;;6.50;99.90;;;;;;4974585;28;20501;-73
2021/11/20 10:45:21;;;;;;;19.83;12.60;;;6.50;99.90;;;;;;4984474;28;20573;-73
2021/11/20 10:48:08;;;;;;;20.42;12.93;;;6.50;99.90;;;;;;4975053;28;20466;-73
2021/11/20 10:50:39;;;;;;;15.35;11.05;;;6.50;99.90;;;;;;4966012;28;20121;-73
2021/11/20 10:53:56;;;;;;;15.45;9.93;;;6.50;99.90;;;;;;4972871;28;20810;-72
2021/11/20 10:56:31;;;;;;;16.88;10.68;;;6.50;99.90;;;;;;4943838;29;20106;-73
2021/11/20 10:59:34;;;;;;;13.45;8.65;;;6.50;99.90;;;;;;4960163;28;20042;-73
2021/11/20 11:02:24;;;;;;;15.63;10.35;;;6.60;99.90;;;;;;4968869;28;20122;-73
2021/11/20 11:05:00;;;;;;;11.02;7.25;;;6.60;99.90;;;;;;4972789;28;20779;-73
2021/11/20 11:07:47;;;;;;;7.80;4.80;;;6.70;99.90;;;;;;4987589;28;20090;-73
2021/11/20 11:10:27;;;;;;;6.80;3.83;;;6.70;99.90;;;;;;4988978;28;20047;-73
2021/11/20 11:13:09;;;;;;;5.90;3.78;;;6.70;99.90;;;;;;4971397;28;20099;-73
2021/11/20 11:16:04;;;;;;;6.32;4.32;;;6.70;99.90;;;;;;4963756;28;20410;-73
2021/11/20 11:18:44;;;;;;;6.05;4.07;;;6.70;99.90;;;;;;4991025;28;20050;-73
2021/11/20 11:21:22;;;;;;;5.82;4.22;;;6.60;99.90;;;;;;4977880;28;20125;-73
2021/11/20 11:24:08;;;;;;;7.85;5.13;;;6.60;99.90;;;;;;4982148;28;20569;-73
2021/11/20 11:26:53;;;;;;;5.68;4.22;;;6.70;99.90;;;;;;4994138;28;20040;-73
2021/11/20 11:29:31;;;;;;;7.00;4.18;;;6.70;99.90;;;;;;4978289;28;20524;-72
2021/11/20 11:32:04;;;;;;;4.65;3.75;;;6.70;99.90;;;;;;4969740;28;20043;-73
2021/11/20 11:34:58;;;;;;;7.30;5.80;;;6.80;99.90;;;;;;4994304;28;20050;-73
2021/11/20 11:37:48;;;;;;;7.32;5.43;;;6.70;99.90;;;;;;4991340;28;20070;-73
2021/11/20 11:40:25;;;;;;;14.40;9.00;;;6.70;99.90;;;;;;4984361;28;20123;-73
2021/11/20 11:43:09;;;;;;;13.70;7.85;;;6.70;99.90;;;;;;4990516;28;20134;-74
2021/11/20 11:45:57;;;;;;;15.48;8.32;;;6.70;99.90;;;;;;4957637;28;20077;-73
2021/11/20 11:48:36;;;;;;;14.05;8.63;;;6.80;99.90;;;;;;4957389;28;20532;-73
2021/11/20 11:51:41;;;;;;;9.50;6.88;;;6.80;99.90;;;;;;4973039;28;20090;-73
2021/11/20 11:54:16;;;;;;;10.90;6.60;;;6.90;99.90;;;;;;4973274;28;20484;-73
2021/11/20 11:57:23;;;;;;;16.30;9.20;;;6.90;99.90;;;;;;4988109;28;20050;-73
2021/11/20 12:00:05;;;;;;;15.77;9.45;;;6.80;99.90;;;;;;4973236;28;20043;-73
2021/11/20 12:02:38;;;;;;;11.13;7.57;;;6.80;99.90;;;;;;4971951;28;20042;-73
2021/11/20 12:05:31;;;;;;;10.48;7.07;;;6.80;99.90;;;;;;4952655;28;20490;-73
2021/11/20 12:08:23;;;;;;;7.18;5.70;;;6.80;99.90;;;;;;4969419;28;20038;-73
2021/11/20 12:10:52;;;;;;;7.90;5.97;;;6.80;99.90;;;;;;4977647;28;20429;-73
2021/11/20 12:13:30;;;;;;;8.50;6.57;;;6.80;99.90;;;;;;4968004;28;20050;-73
2021/11/20 12:16:25;;;;;;;8.25;6.40;;;6.80;99.90;;;;;;4967380;28;20046;-73
2021/11/20 12:19:04;;;;;;;16.35;9.73;;;6.70;99.90;;;;;;4981036;28;20125;-73
2021/11/20 12:21:38;;;;;;;7.32;5.80;;;6.70;99.90;;;;;;4988440;28;20113;-74
2021/11/20 12:24:41;;;;;;;8.10;5.60;;;6.80;99.90;;;;;;4990872;28;20135;-73
2021/11/20 12:27:38;;;;;;;8.98;6.00;;;6.80;99.90;;;;;;4971667;28;20634;-73
2021/11/20 12:30:22;;;;;;;9.75;6.18;;;6.70;99.90;;;;;;4955922;28;20122;-73
2021/11/20 12:32:56;;;;;;;7.85;6.35;;;6.70;99.90;;;;;;4984513;28;20131;-73
2021/11/20 12:36:09;;;;;;;8.32;6.30;;;6.80;99.90;;;;;;4969721;28;20047;-73
2021/11/20 12:38:44;;;;;;;8.93;6.85;;;6.80;99.90;;;;;;4948419;28;20133;-73
2021/11/20 12:41:44;;;;;;;9.40;6.43;;;6.80;99.90;;;;;;4972862;28;20043;-73
2021/11/20 12:44:25;;;;;;;8.32;5.72;;;6.80;99.90;;;;;;4972025;28;20066;-73
2021/11/20 12:47:11;;;;;;;8.50;6.38;;;6.70;99.90;;;;;;4987432;28;20046;-72
2021/11/20 12:50:02;;;;;;;10.05;6.47;;;6.60;99.90;;;;;;4972110;28;20118;-73
2021/11/20 12:52:47;;;;;;;9.07;6.85;;;6.60;99.90;;;;;;4988219;28;20079;-73
2021/11/20 12:55:19;;;;;;;11.25;7.50;;;6.60;99.90;;;;;;4965837;28;20153;-72
2021/11/20 12:57:50;;;;;;;12.27;9.20;;;6.60;99.90;;;;;;4977165;28;20520;-73
2021/11/20 13:00:29;;;;;;;10.60;7.90;;;6.70;99.90;;;;;;4958489;28;20050;-73
2021/11/20 13:03:23;;;;;;;11.00;7.63;;;6.70;99.90;;;;;;4957079;28;20058;-73
2021/11/20 13:05:57;;;;;;;10.57;7.50;;;6.70;99.90;;;;;;4967304;28;20138;-73
2021/11/20 13:08:38;;;;;;;23.23;14.63;;;6.70;99.90;;;;;;5074600;28;20799;-72
2021/11/20 13:11:18;;;;;;;16.00;10.13;;;6.80;99.90;;;;;;5078370;28;20051;-73
2021/11/20 13:14:06;;;;;;;12.65;9.10;;;6.80;99.90;;;;;;5086082;28;20044;-73
2021/11/20 13:16:33;;;;;;;12.45;9.05;;;6.70;99.90;;;;;;5073829;28;20139;-74
2021/11/20 13:19:11;;;;;;;13.02;11.05;;;6.70;99.90;;;;;;5076847;28;20094;-73
2021/11/20 13:21:45;;;;;;;16.13;9.90;;;6.70;99.90;;;;;;5083362;28;20506;-73
2021/11/20 13:24:19;;;;;;;9.05;6.97;;;6.70;99.90;;;;;;5081947;28;20698;-73
2021/11/20 13:27:08;;;;;;;11.70;7.90;;;6.60;99.90;;;;;;5075993;28;20463;-73
2021/11/20 13:29:45;;;;;;;8.82;7.35;;;6.60;99.90;;;;;;5072090;28;20040;-73
2021/11/20 13:32:17;;;;;;;10.93;7.43;;;6.70;99.90;;;;;;5051427;28;20033;-73
2021/11/20 13:34:55;;;;;;;10.43;6.47;;;6.70;99.90;;;;;;5067464;28;20468;-73
2021/11/20 13:37:27;;;;;;;11.70;6.80;;;6.60;99.90;;;;;;5077107;28;20155;-73
2021/11/20 13:39:59;;;;;;;8.95;6.10;;;6.60;99.90;;;;;;5075951;28;20378;-73
2021/11/20 13:42:34;;;;;;;8.43;5.93;;;6.60;99.90;;;;;;5080852;28;20044;-73
2021/11/20 13:45:06;;;;;;;8.82;5.78;;;6.60;99.90;;;;;;5078970;28;20131;-73